Time;durP1;ratioP1;P1;durP2;ratioP2;P2;SDS_P1;SDS_P2;PMS_P1;PMS_P2;Temp;Humidity;BMP_temperature;BMP_pressure;BME280_temperature;BME280_humidity;BME280_pressure;Samples;Min_cycle;Max_cycle;Signal;HPM_P1;HPM_P2
2020/12/02 00:00:15;;;;;;;105.73;32.80;;;1.50;99.90;;;;;;5095212;28;20453;-79
2020/12/02 00:02:59;;;;;;;108.10;32.83;;;1.50;99.90;;;;;;5094250;28;20491;-78
2020/12/02 00:05:26;;;;;;;105.13;33.28;;;1.50;99.90;;;;;;5094081;28;20040;-79
2020/12/02 00:08:09;;;;;;;96.60;31.85;;;1.50;99.90;;;;;;5076056;28;20453;-77
2020/12/02 00:10:36;;;;;;;94.88;31.80;;;1.50;99.90;;;;;;5094930;28;20051;-77
2020/12/02 00:13:05;;;;;;;105.60;32.53;;;1.50;99.90;;;;;;5094060;28;20044;-77
2020/12/02 00:15:32;;;;;;;110.18;32.28;;;1.50;99.90;;;;;;5093676;28;20384;-77
2020/12/02 00:17:59;;;;;;;102.00;31.65;;;1.50;99.90;;;;;;5094379;28;20031;-79
2020/12/02 00:20:25;;;;;;;96.90;31.27;;;1.50;99.90;;;;;;5093362;28;20044;-77
2020/12/02 00:22:52;;;;;;;99.30;32.25;;;1.50;99.90;;;;;;5094468;28;20028;-77
2020/12/02 00:25:18;;;;;;;96.93;30.35;;;1.50;99.90;;;;;;5093825;28;20024;-78
2020/12/02 00:27:45;;;;;;;91.15;30.77;;;1.50;99.90;;;;;;5092300;28;20469;-76
2020/12/02 00:30:13;;;;;;;99.38;32.97;;;1.50;99.90;;;;;;5094500;28;20063;-76
2020/12/02 00:32:43;;;;;;;93.43;32.42;;;1.50;99.90;;;;;;5095119;28;20032;-76
2020/12/02 00:35:20;;;;;;;104.93;33.75;;;1.40;99.90;;;;;;5094248;28;20044;-76
2020/12/02 00:37:47;;;;;;;95.38;33.65;;;1.50;99.90;;;;;;5095946;28;20566;-76
2020/12/02 00:40:15;;;;;;;96.57;34.50;;;1.50;99.90;;;;;;5094467;28;20047;-76
2020/12/02 00:42:41;;;;;;;109.93;34.13;;;1.40;99.90;;;;;;5096206;28;20027;-76
2020/12/02 00:45:09;;;;;;;108.13;34.08;;;1.40;99.90;;;;;;5093935;28;20460;-77
2020/12/02 00:47:37;;;;;;;108.15;35.65;;;1.40;99.90;;;;;;5094942;28;20033;-76
2020/12/02 00:50:09;;;;;;;113.43;33.85;;;1.40;99.90;;;;;;5094815;28;20035;-77
2020/12/02 00:52:35;;;;;;;96.05;33.95;;;1.50;99.90;;;;;;5091905;28;20044;-76
2020/12/02 00:55:02;;;;;;;103.82;38.50;;;1.40;99.90;;;;;;5093450;28;20048;-77
2020/12/02 00:57:34;;;;;;;90.00;31.33;;;1.40;99.90;;;;;;5092117;28;20228;-77
2020/12/02 01:00:08;;;;;;;96.50;34.22;;;1.40;99.90;;;;;;5093852;28;20036;-76
2020/12/02 01:03:06;;;;;;;105.53;35.78;;;1.40;99.90;;;;;;5092647;28;20035;-76
2020/12/02 01:05:34;;;;;;;89.65;34.70;;;1.40;99.90;;;;;;5092617;28;20024;-76
2020/12/02 01:08:21;;;;;;;106.93;34.63;;;1.40;99.90;;;;;;5093204;28;20043;-77
2020/12/02 01:10:52;;;;;;;102.22;34.95;;;1.40;99.90;;;;;;5096748;28;20468;-76
2020/12/02 01:13:18;;;;;;;111.38;34.75;;;1.40;99.90;;;;;;5100627;28;20032;-76
2020/12/02 01:15:44;;;;;;;100.13;34.20;;;1.30;99.90;;;;;;5099501;28;20052;-76
2020/12/02 01:18:23;;;;;;;103.03;33.33;;;1.30;99.90;;;;;;5101475;28;20036;-76
2020/12/02 01:21:09;;;;;;;101.32;33.53;;;1.40;99.90;;;;;;5100593;28;20032;-77
2020/12/02 01:23:36;;;;;;;95.80;33.40;;;1.40;99.90;;;;;;5098447;28;20044;-76
2020/12/02 01:26:03;;;;;;;100.00;32.50;;;1.40;99.90;;;;;;5099182;28;20472;-76
2020/12/02 01:28:31;;;;;;;102.53;33.53;;;1.30;99.90;;;;;;5095676;28;20400;-76
2020/12/02 01:30:59;;;;;;;96.45;34.55;;;1.40;99.90;;;;;;5099060;28;20067;-77
2020/12/02 01:33:26;;;;;;;95.22;33.38;;;1.30;99.90;;;;;;5097663;28;20338;-76
2020/12/02 01:35:53;;;;;;;99.30;32.38;;;1.40;99.90;;;;;;5097310;28;20031;-77
2020/12/02 01:38:38;;;;;;;92.20;31.20;;;1.30;99.90;;;;;;5095479;28;20032;-76
2020/12/02 01:41:04;;;;;;;95.15;32.25;;;1.40;99.90;;;;;;5096965;28;20430;-77
2020/12/02 01:43:31;;;;;;;85.45;30.40;;;1.40;99.90;;;;;;5093993;28;20039;-76
2020/12/02 01:46:42;;;;;;;88.40;32.03;;;1.30;99.90;;;;;;5093773;28;20032;-76
2020/12/02 01:49:28;;;;;;;90.93;30.25;;;1.40;99.90;;;;;;5036183;28;20068;-76
2020/12/02 01:52:03;;;;;;;98.78;32.67;;;1.30;99.90;;;;;;5050915;28;20032;-76
2020/12/02 01:54:36;;;;;;;89.78;30.67;;;1.40;99.90;;;;;;5015794;28;20049;-77
2020/12/02 01:57:16;;;;;;;89.32;31.13;;;1.30;99.90;;;;;;5050465;28;20063;-77
2020/12/02 01:59:55;;;;;;;81.53;29.35;;;1.40;99.90;;;;;;5050470;28;20056;-78
2020/12/02 02:02:50;;;;;;;84.72;29.60;;;1.30;99.90;;;;;;5049726;28;20437;-76
2020/12/02 02:05:25;;;;;;;81.60;29.10;;;1.30;99.90;;;;;;5050034;28;20041;-76
2020/12/02 02:07:53;;;;;;;85.30;32.08;;;1.30;99.90;;;;;;5050425;28;20047;-76
2020/12/02 02:10:26;;;;;;;75.32;29.23;;;1.30;99.90;;;;;;5049338;28;20049;-76
2020/12/02 02:12:55;;;;;;;88.70;29.35;;;1.30;99.90;;;;;;5050244;28;20041;-77
2020/12/02 02:15:39;;;;;;;83.68;29.08;;;1.40;99.90;;;;;;5049979;28;20051;-77
2020/12/02 02:18:11;;;;;;;74.00;28.92;;;1.30;99.90;;;;;;5033320;28;20044;-77
2020/12/02 02:20:41;;;;;;;77.78;28.83;;;1.30;99.90;;;;;;5078780;28;20043;-76
2020/12/02 02:23:11;;;;;;;53.20;20.53;;;1.30;99.90;;;;;;5092714;28;20024;-76
2020/12/02 02:25:38;;;;;;;71.95;27.77;;;1.30;99.90;;;;;;5091699;28;20110;-76
2020/12/02 02:28:05;;;;;;;69.53;26.33;;;1.30;99.90;;;;;;5092678;28;20043;-76
2020/12/02 02:30:33;;;;;;;78.25;27.77;;;1.30;99.90;;;;;;5091672;28;20052;-77
2020/12/02 02:33:00;;;;;;;77.93;29.33;;;1.20;99.90;;;;;;5092566;28;20516;-77
2020/12/02 02:35:28;;;;;;;76.05;27.70;;;1.20;99.90;;;;;;5091588;28;20036;-76
2020/12/02 02:37:54;;;;;;;80.72;27.65;;;1.20;99.90;;;;;;5092989;28;20483;-77
2020/12/02 02:40:20;;;;;;;75.35;28.45;;;1.20;99.90;;;;;;5092766;28;20048;-76
2020/12/02 02:42:49;;;;;;;76.50;29.50;;;1.10;99.90;;;;;;5092700;28;20449;-77
2020/12/02 02:45:25;;;;;;;74.90;27.52;;;1.10;99.90;;;;;;5092264;28;20032;-77
2020/12/02 02:47:57;;;;;;;76.38;27.13;;;1.00;99.90;;;;;;5092814;28;20028;-76
2020/12/02 02:50:25;;;;;;;73.20;27.58;;;0.90;99.90;;;;;;5091581;28;20028;-76
2020/12/02 02:52:52;;;;;;;89.68;30.35;;;0.80;99.90;;;;;;5090975;28;20047;-76
2020/12/02 02:55:24;;;;;;;87.95;30.58;;;0.80;99.90;;;;;;5091635;28;20036;-78
2020/12/02 02:57:50;;;;;;;;;;;0.70;99.90;;;;;;5092638;28;20376;-76
2020/12/02 03:00:29;;;;;;;78.82;26.00;;;0.70;99.90;;;;;;5090728;28;20289;-76
2020/12/02 03:02:56;;;;;;;75.93;28.15;;;0.60;99.90;;;;;;5091935;28;20377;-77
2020/12/02 03:05:24;;;;;;;70.72;25.88;;;0.60;99.90;;;;;;5090798;28;20039;-76
2020/12/02 03:07:55;;;;;;;76.55;26.95;;;0.40;99.90;;;;;;5092418;28;20372;-77
2020/12/02 03:10:25;;;;;;;76.68;26.63;;;0.40;99.90;;;;;;5092581;28;20032;-77
2020/12/02 03:12:51;;;;;;;74.90;26.05;;;0.30;99.90;;;;;;5092336;28;20039;-76
2020/12/02 03:15:19;;;;;;;62.88;26.52;;;0.40;99.90;;;;;;5092063;28;20384;-76
2020/12/02 03:17:46;;;;;;;77.18;27.30;;;0.40;99.90;;;;;;5091641;28;20051;-76
2020/12/02 03:20:20;;;;;;;65.43;27.55;;;0.30;99.90;;;;;;5091785;28;20321;-77
2020/12/02 03:22:48;;;;;;;77.47;26.90;;;0.30;99.90;;;;;;5090800;28;20043;-77
2020/12/02 03:25:20;;;;;;;68.35;25.52;;;0.40;99.90;;;;;;5090789;28;20044;-77
2020/12/02 03:27:46;;;;;;;86.43;27.45;;;0.40;99.90;;;;;;5091072;28;20024;-77
2020/12/02 03:30:13;;;;;;;79.32;29.05;;;0.40;99.90;;;;;;5090371;28;20500;-77
2020/12/02 03:32:39;;;;;;;80.00;28.65;;;0.40;99.90;;;;;;5090802;28;20522;-77
2020/12/02 03:35:06;;;;;;;72.70;27.67;;;0.50;99.90;;;;;;5095243;28;20055;-77
2020/12/02 03:37:32;;;;;;;73.30;26.20;;;0.50;99.90;;;;;;5094547;28;20036;-77
2020/12/02 03:39:58;;;;;;;68.55;26.95;;;0.60;99.90;;;;;;5095216;28;20032;-77
2020/12/02 03:42:24;;;;;;;77.53;27.88;;;0.60;99.90;;;;;;5092921;28;20052;-76
2020/12/02 03:44:51;;;;;;;72.47;28.42;;;0.60;99.90;;;;;;5095147;28;20090;-77
2020/12/02 03:47:17;;;;;;;75.00;27.95;;;0.70;99.90;;;;;;5095480;28;20047;-77
2020/12/02 03:49:43;;;;;;;89.38;28.95;;;0.70;99.90;;;;;;5094115;28;20197;-77
2020/12/02 03:52:09;;;;;;;81.72;29.15;;;0.80;99.90;;;;;;5096655;28;20028;-77
2020/12/02 03:54:35;;;;;;;95.22;31.10;;;0.80;99.90;;;;;;5094691;28;20028;-77
2020/12/02 03:57:02;;;;;;;85.78;30.73;;;0.90;99.90;;;;;;5095578;28;20449;-77
2020/12/02 03:59:29;;;;;;;82.75;29.38;;;0.90;99.90;;;;;;5094576;28;20032;-77
2020/12/02 04:01:56;;;;;;;97.30;30.98;;;0.90;99.90;;;;;;5094522;28;20066;-77
2020/12/02 04:04:23;;;;;;;85.65;31.23;;;0.90;99.90;;;;;;5093891;28;20036;-77
2020/12/02 04:06:50;;;;;;;84.97;30.33;;;1.00;99.90;;;;;;5093345;28;20514;-75
2020/12/02 04:09:16;;;;;;;93.97;30.30;;;0.90;99.90;;;;;;5095045;28;20035;-77
2020/12/02 04:11:43;;;;;;;84.72;31.75;;;1.00;99.90;;;;;;5094103;28;20585;-77
2020/12/02 04:14:09;;;;;;;86.22;31.70;;;1.00;99.90;;;;;;5094437;28;20043;-77
2020/12/02 04:16:36;;;;;;;84.28;28.17;;;1.00;99.90;;;;;;5094366;28;20043;-77
2020/12/02 04:19:02;;;;;;;92.45;31.40;;;1.00;99.90;;;;;;5095128;28;20388;-77
2020/12/02 04:21:30;;;;;;;97.75;30.90;;;1.00;99.90;;;;;;5094143;28;20024;-76
2020/12/02 04:23:57;;;;;;;81.32;29.45;;;1.00;99.90;;;;;;5093498;28;20051;-77
2020/12/02 04:26:27;;;;;;;89.30;29.73;;;1.00;99.90;;;;;;5094346;28;20028;-76
2020/12/02 04:28:54;;;;;;;79.00;28.50;;;1.00;99.90;;;;;;5093961;28;20036;-77
2020/12/02 04:31:21;;;;;;;82.50;32.22;;;1.00;99.90;;;;;;5093067;28;20051;-76
2020/12/02 04:33:47;;;;;;;88.57;30.98;;;1.00;99.90;;;;;;5091632;28;20459;-77
2020/12/02 04:36:13;;;;;;;83.10;30.77;;;1.10;99.90;;;;;;5094273;28;20389;-77
2020/12/02 04:38:40;;;;;;;83.00;31.30;;;1.10;99.90;;;;;;5093517;28;20032;-77
2020/12/02 04:41:13;;;;;;;84.65;30.65;;;1.10;99.90;;;;;;5094583;28;20461;-77
2020/12/02 04:43:42;;;;;;;86.32;31.13;;;1.10;99.90;;;;;;5093144;28;20464;-77
2020/12/02 04:46:25;;;;;;;80.78;29.27;;;1.10;99.90;;;;;;5095197;28;20055;-77
2020/12/02 04:48:59;;;;;;;75.00;29.48;;;1.10;99.90;;;;;;5076346;28;20040;-77
2020/12/02 04:51:28;;;;;;;74.18;28.55;;;1.10;99.90;;;;;;5093847;28;20498;-77
2020/12/02 04:53:56;;;;;;;77.53;28.33;;;1.10;99.90;;;;;;5094434;28;20032;-77
2020/12/02 04:56:25;;;;;;;74.30;28.88;;;1.10;99.90;;;;;;5094034;28;20055;-77
2020/12/02 04:58:54;;;;;;;85.90;29.88;;;1.10;99.90;;;;;;5094067;28;20035;-77
2020/12/02 05:01:25;;;;;;;87.95;29.55;;;1.10;99.90;;;;;;5094055;28;20044;-76
2020/12/02 05:04:07;;;;;;;74.80;28.95;;;1.20;99.90;;;;;;5094167;28;20450;-77
2020/12/02 05:06:37;;;;;;;77.97;27.58;;;1.20;99.90;;;;;;5093205;28;20043;-77
2020/12/02 05:09:18;;;;;;;75.60;28.48;;;1.20;99.90;;;;;;5093737;28;20469;-77
2020/12/02 05:12:14;;;;;;;55.05;20.80;;;1.20;99.90;;;;;;5074238;28;20036;-76
2020/12/02 05:14:43;;;;;;;72.38;27.08;;;1.20;99.90;;;;;;5092200;28;20052;-76
2020/12/02 05:17:17;;;;;;;72.00;27.33;;;1.20;99.90;;;;;;5094463;28;20036;-77
2020/12/02 05:19:45;;;;;;;78.57;28.85;;;1.20;99.90;;;;;;5093205;28;20499;-77
2020/12/02 05:22:16;;;;;;;66.45;26.00;;;1.20;99.90;;;;;;5092431;28;20024;-77
2020/12/02 05:24:45;;;;;;;67.40;26.45;;;1.20;99.90;;;;;;5092430;28;20040;-77
2020/12/02 05:27:15;;;;;;;78.00;27.88;;;1.20;99.90;;;;;;5093775;28;20381;-77
2020/12/02 05:29:49;;;;;;;69.55;27.58;;;1.20;99.90;;;;;;5091761;28;20055;-76
2020/12/02 05:32:25;;;;;;;81.22;28.02;;;1.30;99.90;;;;;;5093540;28;20480;-77
2020/12/02 05:34:52;;;;;;;80.97;29.25;;;1.20;99.90;;;;;;5093053;28;20028;-77
2020/12/02 05:37:40;;;;;;;78.15;28.48;;;1.20;99.90;;;;;;5092325;28;20051;-77
2020/12/02 05:40:14;;;;;;;74.60;27.58;;;1.30;99.90;;;;;;5099625;28;20043;-77
2020/12/02 05:42:46;;;;;;;73.07;27.90;;;1.30;99.90;;;;;;5096911;28;20039;-77
2020/12/02 05:45:40;;;;;;;76.88;28.90;;;1.30;99.90;;;;;;5095617;28;20035;-76
2020/12/02 05:48:16;;;;;;;75.78;28.13;;;1.30;99.90;;;;;;5093138;28;20044;-76
2020/12/02 05:50:43;;;;;;;76.57;28.80;;;1.30;99.90;;;;;;5091713;28;20032;-77
2020/12/02 05:53:18;;;;;;;73.57;28.35;;;1.30;99.90;;;;;;5093271;28;20047;-76
2020/12/02 05:55:45;;;;;;;72.32;28.85;;;1.30;99.90;;;;;;5090603;28;20044;-77
2020/12/02 05:58:22;;;;;;;80.25;28.63;;;1.30;99.90;;;;;;5092607;28;20131;-77
2020/12/02 06:00:48;;;;;;;74.50;29.55;;;1.40;99.90;;;;;;5092003;28;20071;-77
2020/12/02 06:03:31;;;;;;;78.38;28.35;;;1.40;99.90;;;;;;5093011;28;20035;-77
2020/12/02 06:06:05;;;;;;;74.13;28.17;;;1.40;99.90;;;;;;5092265;28;20485;-77
2020/12/02 06:08:42;;;;;;;72.00;28.25;;;1.40;99.90;;;;;;5092002;28;20032;-77
2020/12/02 06:11:33;;;;;;;71.18;28.85;;;1.40;99.90;;;;;;5092873;28;20457;-77
2020/12/02 06:14:14;;;;;;;52.80;21.15;;;1.40;99.90;;;;;;5092969;28;20055;-77
2020/12/02 06:16:45;;;;;;;58.60;25.02;;;1.40;99.90;;;;;;5091810;28;20051;-77
2020/12/02 06:19:23;;;;;;;66.53;28.70;;;1.40;99.90;;;;;;5093042;28;20365;-76
2020/12/02 06:21:56;;;;;;;63.80;27.52;;;1.40;99.90;;;;;;5090768;28;20032;-77
2020/12/02 06:24:42;;;;;;;58.53;27.10;;;1.40;99.90;;;;;;5090357;28;20396;-77
2020/12/02 06:27:14;;;;;;;61.80;29.77;;;1.40;99.90;;;;;;5092721;28;20032;-75
2020/12/02 06:29:44;;;;;;;61.58;26.60;;;1.40;99.90;;;;;;5091529;28;20036;-75
2020/12/02 06:32:14;;;;;;;60.17;25.05;;;1.40;99.90;;;;;;5090565;28;20048;-75
2020/12/02 06:34:41;;;;;;;49.13;19.65;;;1.40;99.90;;;;;;5091231;28;20035;-76
2020/12/02 06:37:12;;;;;;;57.70;24.98;;;1.30;99.90;;;;;;5092374;28;20456;-76
2020/12/02 06:39:45;;;;;;;54.88;24.52;;;1.30;99.90;;;;;;5090654;28;20040;-77
2020/12/02 06:42:22;;;;;;;54.60;23.33;;;1.30;99.90;;;;;;5092825;28;20116;-76
2020/12/02 06:45:08;;;;;;;51.65;24.38;;;1.30;99.90;;;;;;5092002;28;20032;-76
2020/12/02 06:47:54;;;;;;;46.28;20.92;;;1.30;99.90;;;;;;5090801;28;20036;-76
2020/12/02 06:50:24;;;;;;;49.60;19.70;;;1.30;99.90;;;;;;5092254;28;20349;-75
2020/12/02 06:52:50;;;;;;;44.67;21.35;;;1.30;99.90;;;;;;5090141;28;20040;-75
2020/12/02 06:55:24;;;;;;;40.08;20.13;;;1.40;99.90;;;;;;5091968;28;20028;-76
2020/12/02 06:58:00;;;;;;;41.08;19.73;;;1.40;99.90;;;;;;5091106;28;20039;-76
2020/12/02 07:00:39;;;;;;;40.20;18.95;;;1.50;99.90;;;;;;5091949;28;20032;-75
2020/12/02 07:03:27;;;;;;;35.97;18.08;;;1.50;99.90;;;;;;5091333;28;20036;-75
2020/12/02 07:06:23;;;;;;;38.38;18.10;;;1.50;99.90;;;;;;5092009;28;20028;-76
2020/12/02 07:09:08;;;;;;;29.58;15.20;;;1.50;99.90;;;;;;5095663;28;20097;-76
2020/12/02 07:11:34;;;;;;;32.17;17.75;;;1.50;99.90;;;;;;5094927;28;20047;-77
2020/12/02 07:14:22;;;;;;;31.48;15.88;;;1.50;99.90;;;;;;5095928;28;20040;-76
2020/12/02 07:16:56;;;;;;;32.42;16.70;;;1.50;99.90;;;;;;5095483;28;20055;-76
2020/12/02 07:19:31;;;;;;;30.17;15.40;;;1.50;99.90;;;;;;5095995;28;20028;-76
2020/12/02 07:22:06;;;;;;;27.90;14.20;;;1.50;99.90;;;;;;5093485;28;20354;-75
2020/12/02 07:24:37;;;;;;;32.10;15.93;;;1.50;99.90;;;;;;5094885;28;20126;-78
2020/12/02 07:27:05;;;;;;;28.75;15.65;;;1.50;99.90;;;;;;5097399;28;20043;-76
2020/12/02 07:29:33;;;;;;;27.67;14.25;;;1.50;99.90;;;;;;5095503;28;20386;-76
2020/12/02 07:32:18;;;;;;;30.05;15.35;;;1.50;99.90;;;;;;5096709;28;20044;-76
2020/12/02 07:34:45;;;;;;;33.38;16.10;;;1.50;99.90;;;;;;5095803;28;20465;-76
2020/12/02 07:37:13;;;;;;;30.63;15.52;;;1.50;99.90;;;;;;5095813;28;20040;-76
2020/12/02 07:39:47;;;;;;;30.92;15.07;;;1.50;99.90;;;;;;5094017;28;20507;-77
2020/12/02 07:42:24;;;;;;;32.03;15.98;;;1.60;99.90;;;;;;5096210;28;20043;-76
2020/12/02 07:44:59;;;;;;;33.72;16.20;;;1.50;99.90;;;;;;5095507;28;20043;-77
2020/12/02 07:47:26;;;;;;;29.90;15.98;;;1.50;99.90;;;;;;5095835;28;20032;-77
2020/12/02 07:50:02;;;;;;;29.17;16.58;;;1.50;99.90;;;;;;5095259;28;20356;-77
2020/12/02 07:52:35;;;;;;;28.95;15.85;;;1.50;99.90;;;;;;5095283;28;20028;-77
2020/12/02 07:55:03;;;;;;;31.58;16.00;;;1.50;99.90;;;;;;5095700;28;20377;-77
2020/12/02 07:57:29;;;;;;;33.50;17.27;;;1.50;99.90;;;;;;5095219;28;20040;-76
2020/12/02 08:00:27;;;;;;;31.42;15.98;;;1.50;99.90;;;;;;5094591;28;20028;-77
2020/12/02 08:02:54;;;;;;;31.00;14.93;;;1.50;99.90;;;;;;5093515;28;20477;-77
2020/12/02 08:05:49;;;;;;;34.22;18.13;;;1.50;99.90;;;;;;5095037;28;20357;-77
2020/12/02 08:08:15;;;;;;;37.20;18.30;;;1.50;99.90;;;;;;5095829;28;20043;-77
2020/12/02 08:10:41;;;;;;;31.85;17.40;;;1.50;99.90;;;;;;5094841;28;20032;-77
2020/12/02 08:13:19;;;;;;;35.90;16.95;;;1.60;99.90;;;;;;5094984;28;20051;-77
2020/12/02 08:15:52;;;;;;;35.40;17.75;;;1.60;99.90;;;;;;5093382;28;20465;-77
2020/12/02 08:18:23;;;;;;;39.58;18.67;;;1.60;99.90;;;;;;5092944;28;20051;-77
2020/12/02 08:20:49;;;;;;;29.87;15.93;;;1.60;99.90;;;;;;5094702;28;20085;-77
2020/12/02 08:23:28;;;;;;;37.97;18.60;;;1.60;99.90;;;;;;5094948;28;20062;-77
2020/12/02 08:26:17;;;;;;;35.97;17.92;;;1.60;99.90;;;;;;5094438;28;20051;-77
2020/12/02 08:28:44;;;;;;;33.22;15.82;;;1.60;99.90;;;;;;5094345;28;20032;-77
2020/12/02 08:31:21;;;;;;;33.90;16.73;;;1.60;99.90;;;;;;5095501;28;20450;-77
2020/12/02 08:34:24;;;;;;;28.63;14.52;;;1.60;99.90;;;;;;5096148;28;20365;-77
2020/12/02 08:37:28;;;;;;;22.52;12.30;;;1.70;99.90;;;;;;5094165;28;20032;-76
2020/12/02 08:39:56;;;;;;;18.65;9.88;;;1.70;99.90;;;;;;5051458;28;20044;-76
2020/12/02 08:42:30;;;;;;;25.35;12.55;;;1.80;99.90;;;;;;5086472;28;20040;-77
2020/12/02 08:45:17;;;;;;;19.60;10.88;;;1.80;99.90;;;;;;5096500;28;20326;-77
2020/12/02 08:47:50;;;;;;;20.25;10.65;;;1.80;99.90;;;;;;5097774;28;20036;-77
2020/12/02 08:50:30;;;;;;;17.17;8.60;;;1.80;99.90;;;;;;5098092;28;20115;-76
2020/12/02 08:52:58;;;;;;;19.95;11.13;;;1.80;99.90;;;;;;5095162;28;20024;-77
2020/12/02 08:55:26;;;;;;;20.65;10.88;;;1.90;99.90;;;;;;5094292;28;20047;-76
2020/12/02 08:57:52;;;;;;;20.90;10.77;;;1.90;99.90;;;;;;5094488;28;20028;-78
2020/12/02 09:00:21;;;;;;;24.58;11.90;;;1.90;99.90;;;;;;5094183;28;20047;-77
2020/12/02 09:02:48;;;;;;;19.52;11.48;;;1.90;99.90;;;;;;5094221;28;20035;-78
2020/12/02 09:05:15;;;;;;;19.80;11.50;;;1.90;99.90;;;;;;5094901;28;20039;-78
2020/12/02 09:07:41;;;;;;;23.65;11.98;;;1.90;99.90;;;;;;5095628;28;20491;-77
2020/12/02 09:10:08;;;;;;;24.10;13.38;;;1.90;99.90;;;;;;5094544;28;20028;-77
2020/12/02 09:12:34;;;;;;;28.33;14.77;;;1.90;99.90;;;;;;5094420;28;20028;-77
2020/12/02 09:15:00;;;;;;;28.30;14.95;;;1.90;99.90;;;;;;5094261;28;20393;-77
2020/12/02 09:17:27;;;;;;;24.40;14.15;;;1.90;99.90;;;;;;5094842;28;20047;-77
2020/12/02 09:19:53;;;;;;;28.77;15.68;;;1.90;99.90;;;;;;5093424;28;20028;-78
2020/12/02 09:22:20;;;;;;;27.92;14.75;;;1.90;99.90;;;;;;5094569;28;20039;-77
2020/12/02 09:24:48;;;;;;;26.45;14.60;;;1.90;99.90;;;;;;5093519;28;20028;-78
2020/12/02 09:27:14;;;;;;;26.92;14.05;;;1.90;99.90;;;;;;5093329;28;20051;-77
2020/12/02 09:29:41;;;;;;;24.67;13.05;;;2.00;99.90;;;;;;5092112;28;20377;-78
2020/12/02 09:32:07;;;;;;;21.25;12.13;;;2.00;99.90;;;;;;5093294;28;20036;-77
2020/12/02 09:34:35;;;;;;;25.00;13.82;;;2.10;99.90;;;;;;5093409;28;20028;-77
2020/12/02 09:37:01;;;;;;;24.88;11.98;;;2.10;99.90;;;;;;5092929;28;20487;-77
2020/12/02 09:39:31;;;;;;;21.15;10.98;;;2.10;99.90;;;;;;5094424;28;20032;-77
2020/12/02 09:42:28;;;;;;;19.42;11.75;;;2.10;99.90;;;;;;5095332;28;20334;-77
2020/12/02 09:45:10;;;;;;;24.88;14.38;;;2.10;99.90;;;;;;5092218;28;20040;-77
2020/12/02 09:47:37;;;;;;;24.40;12.82;;;2.20;99.90;;;;;;5093869;28;20028;-77
2020/12/02 09:50:06;;;;;;;22.27;12.45;;;2.20;99.90;;;;;;5091147;28;20055;-77
2020/12/02 09:52:43;;;;;;;24.80;12.75;;;2.10;99.90;;;;;;5092134;28;20039;-78
2020/12/02 09:55:21;;;;;;;23.92;12.63;;;2.10;99.90;;;;;;5093131;28;20043;-77
2020/12/02 09:57:48;;;;;;;21.70;11.63;;;2.20;99.90;;;;;;5091477;28;20051;-77
2020/12/02 10:00:17;;;;;;;22.85;12.77;;;2.10;99.90;;;;;;5092920;28;20036;-77
2020/12/02 10:03:02;;;;;;;24.13;12.23;;;2.10;99.90;;;;;;5092884;28;20047;-78
2020/12/02 10:05:46;;;;;;;21.75;11.27;;;2.10;99.90;;;;;;5093044;28;20036;-77
2020/12/02 10:08:30;;;;;;;21.65;11.55;;;2.10;99.90;;;;;;5092737;28;20032;-77
2020/12/02 10:11:16;;;;;;;23.65;12.82;;;2.10;99.90;;;;;;5092462;28;20519;-77
2020/12/02 10:13:54;;;;;;;22.67;12.25;;;2.20;99.90;;;;;;5091280;28;20465;-80
2020/12/02 10:17:06;;;;;;;23.42;12.60;;;2.20;99.90;;;;;;5092802;28;20035;-77
2020/12/02 10:19:48;;;;;;;22.00;12.35;;;2.20;99.90;;;;;;5091752;28;20028;-77
2020/12/02 10:22:26;;;;;;;23.27;13.30;;;2.20;99.90;;;;;;5092869;28;20036;-77
2020/12/02 10:25:17;;;;;;;22.83;12.30;;;2.30;99.90;;;;;;5091137;28;20039;-77
2020/12/02 10:27:53;;;;;;;20.88;13.32;;;2.20;99.90;;;;;;5092232;28;20032;-79
2020/12/02 10:30:28;;;;;;;22.95;13.25;;;2.20;99.90;;;;;;5092521;28;20067;-77
2020/12/02 10:33:27;;;;;;;23.33;13.25;;;2.20;99.90;;;;;;5092152;28;20043;-77
2020/12/02 10:35:57;;;;;;;27.40;13.30;;;2.30;99.90;;;;;;5092254;28;20036;-77
2020/12/02 10:38:43;;;;;;;21.35;12.02;;;2.30;99.90;;;;;;5092310;28;20032;-78
2020/12/02 10:41:43;;;;;;;21.38;12.88;;;2.30;99.90;;;;;;5092303;28;20036;-77
2020/12/02 10:44:36;;;;;;;26.92;13.43;;;2.30;99.90;;;;;;5092772;28;20428;-77
2020/12/02 10:47:14;;;;;;;22.92;12.50;;;2.30;99.90;;;;;;5091896;28;20040;-77
2020/12/02 10:49:45;;;;;;;25.15;13.05;;;2.40;99.90;;;;;;5091675;28;20036;-78
2020/12/02 10:52:15;;;;;;;22.88;12.60;;;2.40;99.90;;;;;;5092644;28;20035;-77
2020/12/02 10:54:47;;;;;;;27.48;13.77;;;2.30;99.90;;;;;;5092438;28;20362;-78
2020/12/02 10:57:17;;;;;;;23.27;13.32;;;2.30;99.90;;;;;;5092568;28;20039;-77
2020/12/02 10:59:45;;;;;;;26.80;14.23;;;2.30;99.90;;;;;;5093081;28;20036;-77
2020/12/02 11:02:20;;;;;;;23.33;13.27;;;2.30;99.90;;;;;;5092683;28;20615;-77
2020/12/02 11:04:47;;;;;;;23.92;13.00;;;2.30;99.90;;;;;;5091900;28;20024;-78
2020/12/02 11:07:39;;;;;;;24.20;13.25;;;2.30;99.90;;;;;;5092540;28;20036;-77
2020/12/02 11:10:18;;;;;;;22.60;13.98;;;2.30;99.90;;;;;;5091960;28;20354;-77
2020/12/02 11:12:47;;;;;;;27.42;13.68;;;2.30;99.90;;;;;;5093172;28;20036;-77
2020/12/02 11:15:22;;;;;;;29.20;13.52;;;2.40;99.90;;;;;;5091851;28;20060;-77
2020/12/02 11:18:19;;;;;;;23.60;12.75;;;2.40;99.90;;;;;;5092291;28;20043;-78
2020/12/02 11:20:54;;;;;;;23.17;12.82;;;2.40;99.90;;;;;;5094222;28;20350;-78
2020/12/02 11:23:40;;;;;;;27.83;14.75;;;2.50;99.90;;;;;;5091925;28;20040;-78
2020/12/02 11:26:24;;;;;;;26.67;14.68;;;2.50;99.90;;;;;;5092293;28;20244;-78
2020/12/02 11:28:53;;;;;;;25.45;13.32;;;2.40;99.90;;;;;;5092946;28;20408;-77
2020/12/02 11:31:52;;;;;;;27.52;13.85;;;2.40;99.90;;;;;;5092633;28;20048;-78
2020/12/02 11:34:49;;;;;;;25.27;13.15;;;2.40;99.90;;;;;;5075366;28;20044;-77
2020/12/02 11:37:20;;;;;;;23.83;13.50;;;2.40;99.90;;;;;;5093544;28;20380;-78
2020/12/02 11:39:54;;;;;;;24.38;13.05;;;2.40;99.90;;;;;;5094045;28;20385;-78
2020/12/02 11:42:59;;;;;;;25.08;13.27;;;2.40;99.90;;;;;;5094808;28;20479;-78
2020/12/02 11:45:45;;;;;;;24.17;13.35;;;2.50;99.90;;;;;;5091886;28;20043;-77
2020/12/02 11:48:32;;;;;;;26.13;14.43;;;2.50;99.90;;;;;;5092695;28;20365;-78
2020/12/02 11:51:26;;;;;;;24.98;13.50;;;2.50;99.90;;;;;;5091850;28;20032;-78
2020/12/02 11:53:57;;;;;;;30.38;14.25;;;2.50;99.90;;;;;;5092646;28;20054;-78
2020/12/02 11:56:29;;;;;;;28.80;14.15;;;2.50;99.90;;;;;;5096660;28;20036;-77
2020/12/02 11:59:12;;;;;;;23.17;13.80;;;2.50;99.90;;;;;;5095270;28;20401;-78
2020/12/02 12:01:49;;;;;;;27.55;14.30;;;2.50;99.90;;;;;;5094867;28;20040;-76
2020/12/02 12:04:33;;;;;;;25.92;14.98;;;2.50;99.90;;;;;;5095994;28;20385;-78
2020/12/02 12:07:09;;;;;;;25.40;13.80;;;2.50;99.90;;;;;;5094669;28;20051;-77
2020/12/02 12:09:53;;;;;;;28.40;15.30;;;2.50;99.90;;;;;;5095976;28;20040;-78
2020/12/02 12:12:36;;;;;;;26.50;14.18;;;2.50;99.90;;;;;;5095468;28;20377;-78
2020/12/02 12:15:38;;;;;;;31.33;14.40;;;2.50;99.90;;;;;;5095299;28;20048;-78
2020/12/02 12:18:14;;;;;;;23.77;12.63;;;2.50;99.90;;;;;;5093939;28;20503;-78
2020/12/02 12:20:44;;;;;;;28.38;14.38;;;2.50;99.90;;;;;;5095734;28;20609;-77
2020/12/02 12:23:52;;;;;;;32.03;15.23;;;2.50;99.90;;;;;;5095337;28;20229;-77
2020/12/02 12:26:19;;;;;;;27.88;14.48;;;2.50;99.90;;;;;;5096114;28;20059;-76
2020/12/02 12:28:46;;;;;;;32.60;16.05;;;2.40;99.90;;;;;;5095697;28;20028;-77
2020/12/02 12:31:23;;;;;;;30.95;16.77;;;2.50;99.90;;;;;;5094656;28;20400;-77
2020/12/02 12:34:02;;;;;;;31.48;16.88;;;2.40;99.90;;;;;;5095246;28;20032;-77
2020/12/02 12:36:31;;;;;;;26.88;14.70;;;2.50;99.90;;;;;;5096172;28;20035;-77
2020/12/02 12:39:04;;;;;;;29.73;16.40;;;2.50;99.90;;;;;;5095346;28;20032;-77
2020/12/02 12:41:36;;;;;;;31.35;16.05;;;2.50;99.90;;;;;;5095764;28;20458;-77
2020/12/02 12:44:12;;;;;;;34.90;15.77;;;2.40;99.90;;;;;;5094862;28;20032;-77
2020/12/02 12:46:42;;;;;;;33.03;17.30;;;2.40;99.90;;;;;;5095829;28;20028;-76
2020/12/02 12:49:12;;;;;;;44.92;23.50;;;2.40;99.90;;;;;;5093123;28;20051;-77
2020/12/02 12:51:39;;;;;;;46.85;23.67;;;2.40;99.90;;;;;;5095293;28;20039;-77
2020/12/02 12:54:12;;;;;;;42.97;24.33;;;2.40;99.90;;;;;;5094302;28;20032;-76
2020/12/02 12:56:41;;;;;;;55.85;25.80;;;2.40;99.90;;;;;;5093810;28;20077;-76
2020/12/02 12:59:10;;;;;;;44.33;20.77;;;2.40;99.90;;;;;;5093134;28;20036;-75
2020/12/02 13:01:39;;;;;;;45.08;21.20;;;2.40;99.90;;;;;;5093677;28;20051;-76
2020/12/02 13:04:08;;;;;;;40.67;19.60;;;2.30;99.90;;;;;;5093232;28;20457;-77
2020/12/02 13:06:58;;;;;;;35.63;18.45;;;2.30;99.90;;;;;;5094342;28;20384;-77
2020/12/02 13:09:36;;;;;;;39.95;17.90;;;2.30;99.90;;;;;;5095040;28;20036;-79